Kerteh Airport
WMKE : now visible

Airfield :











YOU CAN JOIN US ON...

 
LOGIN :

Register | Disclaimer

   EN    FR    IT 

 









Legend :    VFR   Marginal VFR   IFR   Intensive IFR   Very Intensive IFR
Visi :
Ceiling :
>= 8 km
>= 3000ft
5 to 8 km
1000 to 3000 ft
1500m to 5 km
500 to 1000 ft
800 to 1500m
200 to 500 ft
< 800m
< 200 ft
Symbols :   Thunderstorms  Fog  Heavy snow  Heavy precipitations  Wind > 20 kt






- Airport Elevation : 18 ft
- IATA code : KTE


WMKE - Kerteh

CURRENT METAR :
  • 292300Z 00000KT 9999 FEW010 24/24 Q1007

EXPIRED METARs :
  • 292200Z AUTO 00000KT //// // ////// 25/24 Q1007
  • 292100Z AUTO 00000KT //// // ////// 25/24 Q1007
  • 292000Z AUTO 00000KT //// // ////// 26/25 Q1007
  • 291900Z AUTO 00000KT //// // ////// 26/24 Q1007

TAF TAF WMKE
Valid from the 30 at 00:00 until the 31 at 00:00 UTC


292300Z 3000/3100 14008KT 9999 FEW017
TEMPO 3007/3011 5000 TSRA FEW008 FEW014CB
WMFC FIR / Asia



MET'MAP, your aeronautical weather chart ! - Copyright ORBIFLY December 2007 - Disclaimer

ORBIFLY MET'MAP TEAM :

Programming & Development : Alexandra Zaïnal
Original concept : Baudouin d'Aumeries
Technical & hardware support : Manuel Goepfert
Assistance : Marc-Olivier Méhu




SOURCES & CREDITS :

   NOAA       Earth
Advisory